Time;durP1;ratioP1;P1;durP2;ratioP2;P2;SDS_P1;SDS_P2;PMS_P1;PMS_P2;Temp;Humidity;BMP_temperature;BMP_pressure;BME280_temperature;BME280_humidity;BME280_pressure;Samples;Min_cycle;Max_cycle;Signal;HPM_P1;HPM_P2
2024/04/12 00:02:11;;;;;;;6.90;2.00;;;;;;;13.39;100.00;101483.34;5434657;26;20002;-61
2024/04/12 00:04:40;;;;;;;2.78;1.67;;;;;;;13.38;100.00;101482.53;5463454;26;20328;-62
2024/04/12 00:07:13;;;;;;;2.67;1.60;;;;;;;13.37;100.00;101482.84;5443718;26;20006;-62
2024/04/12 00:09:52;;;;;;;4.50;1.92;;;;;;;13.37;100.00;101474.50;5453646;26;20018;-62
2024/04/12 00:12:26;;;;;;;3.67;1.80;;;;;;;13.34;100.00;101469.66;5455834;26;20016;-63
2024/04/12 00:15:01;;;;;;;4.00;2.20;;;;;;;13.35;100.00;101476.84;5434869;26;20456;-63
2024/04/12 00:17:31;;;;;;;4.90;1.83;;;;;;;13.35;100.00;101472.09;5453327;26;20468;-62
2024/04/12 00:20:00;;;;;;;2.80;1.50;;;;;;;13.34;100.00;101475.22;5465919;26;20018;-62
2024/04/12 00:22:29;;;;;;;5.53;2.03;;;;;;;13.31;100.00;101467.56;5407137;26;20007;-62
2024/04/12 00:24:59;;;;;;;4.93;1.65;;;;;;;13.32;100.00;101477.53;5449100;26;20045;-62
2024/04/12 00:27:33;;;;;;;4.00;1.70;;;;;;;13.31;100.00;101481.47;5446836;26;20454;-62
2024/04/12 00:30:03;;;;;;;3.08;1.58;;;;;;;13.29;100.00;101478.25;5448168;26;20021;-62
2024/04/12 00:32:35;;;;;;;3.00;1.45;;;;;;;13.28;100.00;101493.28;5448243;26;20003;-62
2024/04/12 00:35:06;;;;;;;8.40;1.52;;;;;;;13.27;100.00;101486.91;5448730;26;20017;-62
2024/04/12 00:37:34;;;;;;;3.38;1.77;;;;;;;13.25;100.00;101489.22;5445216;26;20008;-62
2024/04/12 00:40:07;;;;;;;5.07;2.30;;;;;;;13.26;100.00;101498.38;5448933;26;19999;-62
2024/04/12 00:42:35;;;;;;;3.67;1.95;;;;;;;13.23;100.00;101490.72;5448020;26;20026;-63
2024/04/12 00:45:11;;;;;;;5.50;1.50;;;;;;;13.22;100.00;101489.91;5417118;26;20007;-62
2024/04/12 00:47:41;;;;;;;5.82;2.13;;;;;;;13.21;100.00;101487.50;5448435;26;20453;-62
2024/04/12 00:50:15;;;;;;;4.45;1.90;;;;;;;13.20;100.00;101477.50;5447716;26;20002;-62
2024/04/12 00:52:44;;;;;;;7.70;2.55;;;;;;;13.18;100.00;101483.44;5447797;26;20007;-62
2024/04/12 00:55:13;;;;;;;5.18;1.98;;;;;;;13.18;100.00;101472.31;5447701;26;20011;-61
2024/04/12 00:57:41;;;;;;;5.13;1.75;;;;;;;13.18;100.00;101480.66;5448087;26;20003;-62
2024/04/12 01:00:12;;;;;;;4.32;1.65;;;;;;;13.18;100.00;101485.41;5448473;26;20003;-62
2024/04/12 01:02:41;;;;;;;3.15;1.83;;;;;;;13.15;100.00;101477.75;5447313;26;20006;-62
2024/04/12 01:05:14;;;;;;;8.35;2.17;;;;;;;13.15;100.00;101477.75;5447879;26;20018;-62
2024/04/12 01:07:55;;;;;;;3.75;2.40;;;;;;;13.13;100.00;101474.50;5416384;26;20610;-62
2024/04/12 01:10:24;;;;;;;4.10;1.83;;;;;;;13.14;100.00;101481.66;5423714;26;20141;-62
2024/04/12 01:12:55;;;;;;;5.28;1.83;;;;;;;13.12;100.00;101481.19;5412250;26;20029;-61
2024/04/12 01:15:32;;;;;;;2.20;1.42;;;;;;;13.10;100.00;101486.31;5411394;26;20016;-62
2024/04/12 01:18:04;;;;;;;4.35;1.52;;;;;;;13.11;100.00;101479.56;5444883;26;20014;-62
2024/04/12 01:20:34;;;;;;;1.98;1.40;;;;;;;13.06;100.00;101480.56;5447536;26;20484;-62
2024/04/12 01:23:04;;;;;;;4.55;1.50;;;;;;;13.05;100.00;101481.72;5446856;26;20018;-62
2024/04/12 01:25:33;;;;;;;3.72;1.48;;;;;;;13.04;100.00;101482.91;5447927;26;20332;-62
2024/04/12 01:28:05;;;;;;;3.35;1.60;;;;;;;13.02;100.00;101481.63;5447628;26;20013;-62
2024/04/12 01:30:34;;;;;;;4.30;1.70;;;;;;;13.01;100.00;101496.66;5448059;26;20018;-61
2024/04/12 01:33:06;;;;;;;2.60;1.48;;;;;;;12.98;100.00;101495.38;5447079;26;20020;-62
2024/04/12 01:35:35;;;;;;;2.90;1.30;;;;;;;12.98;100.00;101494.56;5447244;26;20002;-62
2024/04/12 01:38:16;;;;;;;4.00;2.00;;;;;;;12.98;100.00;101484.25;5415094;26;20003;-62
2024/04/12 01:40:57;;;;;;;6.13;2.30;;;;;;;12.96;100.00;101489.38;5446512;26;20011;-62
2024/04/12 01:43:27;;;;;;;4.30;1.83;;;;;;;12.94;100.00;101488.91;5415298;26;20015;-62
2024/04/12 01:45:56;;;;;;;3.70;1.83;;;;;;;12.91;100.00;101477.66;5446232;26;20060;-62
2024/04/12 01:48:24;;;;;;;1.52;1.25;;;;;;;12.92;100.00;101487.63;5445950;26;20018;-62
2024/04/12 01:50:53;;;;;;;4.45;1.70;;;;;;;12.93;100.00;101486.44;5414492;26;20599;-62
2024/04/12 01:53:22;;;;;;;4.80;2.47;;;;;;;12.92;100.00;101491.19;5446037;26;20027;-62
2024/04/12 01:55:50;;;;;;;3.17;1.27;;;;;;;12.93;100.00;101492.81;5384950;26;20561;-62
2024/04/12 01:58:21;;;;;;;4.07;1.55;;;;;;;12.92;100.00;101493.97;5414244;26;20018;-62
2024/04/12 02:00:49;;;;;;;3.05;2.28;;;;;;;12.91;100.00;101492.34;5445397;26;20002;-61
2024/04/12 02:03:17;;;;;;;3.30;1.45;;;;;;;12.91;100.00;101485.97;5446026;26;19999;-62
2024/04/12 02:05:48;;;;;;;2.55;1.20;;;;;;;12.90;100.00;101487.94;5445707;26;20529;-62
2024/04/12 02:08:16;;;;;;;5.30;1.23;;;;;;;12.89;100.00;101486.34;5409940;26;20391;-62
2024/04/12 02:10:48;;;;;;;2.45;1.05;;;;;;;12.90;100.00;101487.94;5407469;26;20013;-62
2024/04/12 02:13:17;;;;;;;5.68;1.88;;;;;;;12.91;100.00;101477.66;5445760;26;20080;-62
2024/04/12 02:15:51;;;;;;;3.28;1.10;;;;;;;12.90;100.00;101487.94;5414666;26;20003;-62
2024/04/12 02:18:22;;;;;;;2.15;1.30;;;;;;;12.90;100.00;101492.69;5409738;26;20022;-62
2024/04/12 02:20:52;;;;;;;5.13;0.95;;;;;;;12.90;100.00;101489.91;5409622;26;20013;-62
2024/04/12 02:23:21;;;;;;;3.67;1.40;;;;;;;12.90;100.00;101499.06;5409509;26;20707;-63
2024/04/12 02:25:50;;;;;;;2.60;1.63;;;;;;;12.88;100.00;101489.44;5408744;26;20465;-62
2024/04/12 02:28:19;;;;;;;2.08;1.17;;;;;;;12.85;100.00;101485.38;5379064;26;20084;-62
2024/04/12 02:30:54;;;;;;;3.17;0.93;;;;;;;12.87;100.00;101485.84;5409807;26;20747;-62
2024/04/12 02:33:30;;;;;;;1.83;1.00;;;;;;;12.87;100.00;101483.06;5396428;26;20014;-62
2024/04/12 02:36:11;;;;;;;2.60;0.88;;;;;;;12.88;100.00;101483.88;5444730;26;20041;-62
2024/04/12 02:38:41;;;;;;;4.72;1.08;;;;;;;12.89;100.00;101485.53;5445579;26;20017;-62
2024/04/12 02:41:18;;;;;;;1.90;0.90;;;;;;;12.88;100.00;101479.16;5445053;26;20071;-62
2024/04/12 02:43:52;;;;;;;1.00;0.93;;;;;;;12.86;100.00;101475.91;5445174;26;20441;-62
2024/04/12 02:46:20;;;;;;;2.85;1.30;;;;;;;12.88;100.00;101470.81;5413869;26;20399;-62
2024/04/12 02:48:48;;;;;;;2.65;0.98;;;;;;;12.87;100.00;101474.72;5444957;26;19999;-62
2024/04/12 02:51:22;;;;;;;3.70;0.93;;;;;;;12.88;100.00;101470.00;5444815;26;20002;-62
2024/04/12 02:53:51;;;;;;;5.07;1.52;;;;;;;12.87;100.00;101490.63;5411286;26;20002;-62
2024/04/12 02:56:24;;;;;;;1.05;0.90;;;;;;;12.88;100.00;101508.91;5444993;26;20003;-62
2024/04/12 02:58:52;;;;;;;2.78;0.85;;;;;;;12.88;100.00;101508.91;5413582;26;20038;-62
2024/04/12 03:01:23;;;;;;;2.33;1.05;;;;;;;12.86;100.00;101503.69;5463678;21;20015;-62
2024/04/12 03:04:01;;;;;;;2.03;1.20;;;;;;;12.84;100.00;101495.69;5409661;26;20008;-62
2024/04/12 03:06:32;;;;;;;1.35;0.98;;;;;;;12.81;100.00;101496.38;5409138;26;20781;-62
2024/04/12 03:09:01;;;;;;;;;;;;;;;12.80;100.00;101496.72;5407044;26;20004;-62
2024/04/12 03:11:34;;;;;;;3.35;1.15;;;;;;;12.80;100.00;101494.75;5372886;26;19925;-62
2024/04/12 03:14:12;;;;;;;4.65;1.20;;;;;;;12.82;100.00;101502.75;5374148;26;20091;-62
2024/04/12 03:16:42;;;;;;;3.72;1.00;;;;;;;12.85;100.00;101507.63;5385106;26;20007;-62
2024/04/12 03:19:13;;;;;;;4.60;1.17;;;;;;;12.87;100.00;101498.94;5409230;26;20007;-62
2024/04/12 03:21:41;;;;;;;1.20;1.10;;;;;;;12.86;100.00;101498.13;5409118;26;20337;-62
2024/04/12 03:24:10;;;;;;;6.10;1.10;;;;;;;12.88;100.00;101506.13;5406872;26;20051;-62
2024/04/12 03:26:38;;;;;;;3.22;1.25;;;;;;;12.88;100.00;101500.56;5408061;26;20018;-62
2024/04/12 03:29:06;;;;;;;3.45;0.98;;;;;;;12.88;100.00;101501.38;5407759;26;20019;-61
2024/04/12 03:31:39;;;;;;;1.88;1.10;;;;;;;12.86;100.00;101489.78;5408758;26;20014;-62
2024/04/12 03:34:08;;;;;;;3.83;1.00;;;;;;;12.84;100.00;101498.47;5377726;26;20081;-62
2024/04/12 03:42:04;;;;;;;1.92;0.98;;;;;;;12.80;100.00;101486.41;5410967;26;20004;-62
2024/04/12 03:44:36;;;;;;;2.60;0.60;;;;;;;12.80;100.00;101478.09;5409113;26;20018;-62
2024/04/12 03:47:08;;;;;;;2.90;0.60;;;;;;;12.81;100.00;101471.34;5412225;26;20329;-62
2024/04/12 03:49:40;;;;;;;1.52;0.60;;;;;;;12.80;100.00;101489.19;5411546;26;20072;-62
2024/04/12 03:52:13;;;;;;;0.82;0.50;;;;;;;12.78;100.00;101480.41;5412374;26;20559;-62
2024/04/12 03:54:45;;;;;;;0.63;0.40;;;;;;;12.78;100.00;101483.19;5412223;26;20030;-62
2024/04/12 03:57:15;;;;;;;2.72;0.60;;;;;;;12.78;100.00;101474.03;5411269;26;20094;-62
2024/04/12 03:59:43;;;;;;;1.15;0.32;;;;;;;12.78;100.00;101468.47;5411898;26;20049;-62
2024/04/12 04:02:15;;;;;;;4.85;1.00;;;;;;;12.77;100.00;101472.38;5411677;26;20003;-62
2024/04/12 04:04:44;;;;;;;2.17;0.77;;;;;;;12.78;100.00;101482.34;5411954;26;20004;-61
2024/04/12 04:07:15;;;;;;;1.33;0.93;;;;;;;12.77;100.00;101486.28;5404534;26;20022;-62
2024/04/12 04:09:44;;;;;;;3.42;0.50;;;;;;;12.76;100.00;101477.13;5411622;26;20003;-62
2024/04/12 04:12:14;;;;;;;2.13;0.68;;;;;;;12.72;100.00;101484.53;5409786;26;20081;-62
2024/04/12 04:14:50;;;;;;;1.73;0.55;;;;;;;12.72;100.00;101492.88;5412858;26;20022;-62
2024/04/12 04:17:29;;;;;;;2.28;0.65;;;;;;;12.71;100.00;101496.78;5393395;26;20011;-62
2024/04/12 04:20:05;;;;;;;1.17;0.50;;;;;;;12.72;100.00;101490.09;5412788;26;20567;-62
2024/04/12 04:25:07;;;;;;;2.10;0.65;;;;;;;12.69;100.00;101488.00;5413140;26;20057;-62
2024/04/12 04:27:37;;;;;;;3.08;0.68;;;;;;;12.68;100.00;101497.47;5401831;26;20045;-62
2024/04/12 04:30:05;;;;;;;4.22;0.80;;;;;;;12.67;100.00;101483.94;5374457;26;20009;-62
2024/04/12 04:32:33;;;;;;;3.53;0.88;;;;;;;12.65;100.00;101483.47;5351719;26;20007;-61
2024/04/12 04:35:09;;;;;;;7.55;1.20;;;;;;;12.62;100.00;101479.41;5411277;26;20984;-62
2024/04/12 04:37:38;;;;;;;2.72;1.17;;;;;;;12.61;100.00;101475.00;5411205;26;20003;-62
2024/04/12 04:40:25;;;;;;;3.78;1.40;;;;;;;12.59;100.00;101476.50;5411305;26;20018;-62
2024/04/12 04:42:54;;;;;;;3.22;0.95;;;;;;;12.57;100.00;101496.28;5411238;26;20011;-62
2024/04/12 04:45:22;;;;;;;2.83;0.75;;;;;;;12.56;100.00;101494.66;5411865;26;19999;-63
2024/04/12 04:47:51;;;;;;;2.22;0.90;;;;;;;12.55;100.00;101493.00;5410493;26;20366;-61
2024/04/12 04:50:19;;;;;;;2.72;0.82;;;;;;;12.54;100.00;101493.38;5410728;26;20011;-62
2024/04/12 04:52:47;;;;;;;6.63;1.15;;;;;;;12.54;100.00;101521.16;5411440;26;20000;-62
2024/04/12 04:55:15;;;;;;;4.28;1.13;;;;;;;12.55;100.00;101509.69;5411368;26;20003;-62
2024/04/12 04:57:49;;;;;;;4.90;1.10;;;;;;;12.55;100.00;101520.78;5410451;26;20008;-62
2024/04/12 05:00:22;;;;;;;3.30;0.93;;;;;;;12.55;100.00;101508.91;5409340;26;20077;-62
2024/04/12 05:02:53;;;;;;;2.92;0.90;;;;;;;12.54;100.00;101496.97;5375942;26;20086;-62
2024/04/12 05:05:27;;;;;;;4.57;0.75;;;;;;;12.53;100.00;101484.22;5402772;26;20020;-63
2024/04/12 05:07:57;;;;;;;1.73;0.68;;;;;;;12.53;100.00;101495.31;5405790;26;20000;-61
2024/04/12 05:10:33;;;;;;;1.90;0.65;;;;;;;12.49;100.00;101483.28;5410542;26;20013;-62
2024/04/12 05:13:05;;;;;;;2.97;0.98;;;;;;;12.49;100.00;101494.41;5380535;26;20015;-62
2024/04/12 05:18:08;;;;;;;1.63;0.80;;;;;;;12.47;100.00;101501.44;5375983;26;20363;-62
2024/04/12 05:20:41;;;;;;;3.33;0.88;;;;;;;12.47;100.00;101501.44;5375275;26;20016;-62
2024/04/12 05:23:14;;;;;;;3.50;0.90;;;;;;;12.47;100.00;101505.00;5375350;26;20004;-62
2024/04/12 05:25:43;;;;;;;4.20;0.85;;;;;;;12.46;100.00;101506.19;5374350;26;20076;-62
2024/04/12 05:28:12;;;;;;;3.65;1.52;;;;;;;12.46;100.00;101500.63;5375331;26;20004;-62
2024/04/12 05:30:42;;;;;;;3.85;1.30;;;;;;;12.46;100.00;101503.41;5394000;26;20008;-62
2024/04/12 05:33:11;;;;;;;5.28;1.08;;;;;;;12.47;100.00;101495.88;5410760;26;20014;-62
2024/04/12 05:35:40;;;;;;;3.15;0.90;;;;;;;12.47;100.00;101490.34;5410548;26;20007;-62
2024/04/12 05:38:08;;;;;;;1.75;0.80;;;;;;;12.47;100.00;101505.00;5409409;26;20000;-62
2024/04/12 05:40:45;;;;;;;0.95;0.75;;;;;;;12.47;100.00;101513.34;5410011;26;20022;-62
2024/04/12 05:43:13;;;;;;;2.72;1.13;;;;;;;12.46;100.00;101508.13;5408709;26;20003;-62
2024/04/12 05:45:50;;;;;;;2.42;0.85;;;;;;;12.47;100.00;101507.78;5410617;26;20004;-62
2024/04/12 05:48:21;;;;;;;5.72;1.88;;;;;;;12.48;100.00;101508.59;5410601;26;20682;-62
2024/04/12 05:50:53;;;;;;;1.30;0.90;;;;;;;12.49;100.00;101511.06;5410311;26;20004;-62
2024/04/12 05:53:30;;;;;;;2.17;0.85;;;;;;;12.50;100.00;101507.13;5410167;26;20010;-62
2024/04/12 05:58:50;;;;;;;2.78;0.80;;;;;;;12.53;100.00;101489.78;5409475;26;20810;-62
2024/04/12 06:01:19;;;;;;;2.72;0.57;;;;;;;12.52;100.00;101484.56;5408077;26;20000;-62
2024/04/12 06:03:48;;;;;;;2.60;0.90;;;;;;;12.53;100.00;101500.06;5411037;26;20041;-62
2024/04/12 06:06:21;;;;;;;4.22;0.60;;;;;;;12.53;100.00;101492.56;5408466;26;20489;-62
2024/04/12 06:08:52;;;;;;;6.18;0.70;;;;;;;12.52;100.00;101496.47;5409570;26;20007;-62
2024/04/12 06:11:21;;;;;;;2.53;0.40;;;;;;;12.52;100.00;101498.47;5410192;26;20057;-62
2024/04/12 06:13:53;;;;;;;3.33;0.57;;;;;;;12.53;100.00;101487.00;5410610;26;20035;-62
2024/04/12 06:16:22;;;;;;;4.53;0.82;;;;;;;12.51;100.00;101503.19;5400850;26;20016;-63
2024/04/12 06:18:50;;;;;;;2.15;0.40;;;;;;;12.55;100.00;101509.69;5374609;26;20008;-62
2024/04/12 06:21:20;;;;;;;2.05;0.55;;;;;;;12.56;100.00;101508.53;5374106;26;20018;-62
2024/04/12 06:23:54;;;;;;;3.80;0.57;;;;;;;12.57;100.00;101504.63;5372713;26;20004;-62
2024/04/12 06:26:23;;;;;;;2.13;0.63;;;;;;;12.59;100.00;101498.72;5409330;26;20015;-62
2024/04/12 06:28:54;;;;;;;3.85;0.50;;;;;;;12.61;100.00;101493.63;5410037;26;20015;-62
2024/04/12 06:31:34;;;;;;;2.30;0.60;;;;;;;12.63;100.00;101482.97;5407235;26;20019;-62
2024/04/12 06:34:06;;;;;;;0.60;0.55;;;;;;;12.67;100.00;101479.19;5409564;26;20084;-62
2024/04/12 06:36:34;;;;;;;3.38;0.77;;;;;;;12.68;100.00;101486.34;5408032;26;20003;-62
2024/04/12 06:39:05;;;;;;;0.75;0.73;;;;;;;12.71;100.00;101485.69;5408576;26;20015;-63
2024/04/12 06:41:32;;;;;;;1.58;0.47;;;;;;;12.73;100.00;101483.38;5400358;26;20041;-62
2024/04/12 06:44:00;;;;;;;1.52;0.60;;;;;;;12.77;100.00;101487.09;5381013;26;20036;-63
2024/04/12 06:46:28;;;;;;;4.35;0.75;;;;;;;12.79;100.00;101493.13;5404040;26;20007;-63
2024/04/12 06:49:07;;;;;;;0.95;0.50;;;;;;;12.79;100.00;101504.22;5407980;26;20003;-62
2024/04/12 06:51:43;;;;;;;2.15;0.50;;;;;;;12.80;100.00;101496.72;5406321;26;20004;-62
2024/04/12 06:54:11;;;;;;;4.03;0.65;;;;;;;12.86;100.00;101500.09;5409859;26;20019;-62
2024/04/12 06:56:40;;;;;;;1.67;0.40;;;;;;;12.88;100.00;101498.59;5405990;26;20532;-62
2024/04/12 06:59:08;;;;;;;2.85;0.60;;;;;;;12.91;100.00;101511.00;5372126;26;20081;-62
2024/04/12 07:01:35;;;;;;;3.08;0.40;;;;;;;12.92;100.00;101509.84;5373460;26;20019;-62
2024/04/12 07:04:05;;;;;;;4.53;1.05;;;;;;;12.92;100.00;101501.50;5374448;26;20062;-62
2024/04/12 07:06:33;;;;;;;2.00;0.50;;;;;;;12.93;100.00;101497.56;5381893;26;19999;-62
2024/04/12 07:09:08;;;;;;;1.17;0.30;;;;;;;12.95;100.00;101489.69;5398673;26;20007;-62
2024/04/12 07:11:39;;;;;;;2.70;0.88;;;;;;;12.94;100.00;101493.63;5390688;26;20010;-62
2024/04/12 07:14:07;;;;;;;0.53;0.40;;;;;;;12.95;100.00;101498.03;5412572;26;20063;-62
2024/04/12 07:16:35;;;;;;;3.60;0.50;;;;;;;12.97;100.00;101504.06;5400342;26;20081;-62
2024/04/12 07:19:08;;;;;;;1.85;0.60;;;;;;;13.01;100.00;101510.56;5419185;26;20021;-62
2024/04/12 07:21:36;;;;;;;3.25;0.55;;;;;;;13.03;100.00;101505.47;5423161;26;20025;-62
2024/04/12 07:24:05;;;;;;;3.40;0.60;;;;;;;13.06;100.00;101507.56;5424715;26;20003;-64
2024/04/12 07:26:36;;;;;;;1.58;0.82;;;;;;;13.09;100.00;101498.56;5402080;26;20007;-63
2024/04/12 07:29:06;;;;;;;2.40;0.68;;;;;;;13.15;100.00;101505.53;5424024;26;20039;-63
2024/04/12 07:31:36;;;;;;;4.30;0.88;;;;;;;13.21;100.00;101493.84;5389839;26;20018;-63
2024/04/12 07:34:05;;;;;;;2.47;0.52;;;;;;;13.25;100.00;101491.19;5423828;26;20032;-64
2024/04/12 07:36:35;;;;;;;2.10;0.63;;;;;;;13.28;100.00;101488.53;5396816;26;20080;-63
2024/04/12 07:39:14;;;;;;;2.50;0.40;;;;;;;13.32;100.00;101489.47;5423922;26;20018;-64
2024/04/12 07:41:48;;;;;;;1.40;0.45;;;;;;;13.34;100.00;101495.47;5410465;26;20013;-63
2024/04/12 07:44:16;;;;;;;2.78;0.60;;;;;;;13.37;100.00;101502.31;5427075;26;20028;-63
2024/04/12 07:46:49;;;;;;;0.93;0.38;;;;;;;13.38;100.00;101501.19;5435900;26;20003;-63
2024/04/12 07:49:18;;;;;;;2.05;0.45;;;;;;;13.36;100.00;101495.97;5430924;26;20022;-62
2024/04/12 07:51:47;;;;;;;3.13;0.63;;;;;;;13.38;100.00;101507.56;5422643;26;20003;-65
2024/04/12 07:54:16;;;;;;;1.60;0.55;;;;;;;13.41;100.00;101508.84;5419061;26;20004;-64
2024/04/12 07:56:57;;;;;;;2.47;0.65;;;;;;;13.43;100.00;101500.94;5437072;26;20076;-64
2024/04/12 07:59:27;;;;;;;2.10;0.50;;;;;;;13.48;100.00;101502.69;5443704;26;20144;-63
2024/04/12 08:01:57;;;;;;;4.00;0.60;;;;;;;13.51;100.00;101500.03;5431842;26;20013;-64
2024/04/12 08:04:36;;;;;;;3.70;0.60;;;;;;;13.57;100.00;101504.22;5429414;26;20054;-64
2024/04/12 08:07:17;;;;;;;3.97;0.88;;;;;;;13.63;100.00;101491.72;5397921;26;20017;-63
2024/04/12 08:09:46;;;;;;;2.17;0.60;;;;;;;13.72;100.00;101500.72;5405217;26;20074;-64
2024/04/12 08:12:14;;;;;;;1.70;0.80;;;;;;;13.81;100.00;101500.63;5417312;26;20003;-64
2024/04/12 08:14:52;;;;;;;3.35;0.90;;;;;;;13.91;100.00;101509.31;5398293;26;20018;-64
2024/04/12 08:17:27;;;;;;;3.05;0.57;;;;;;;13.98;100.00;101494.78;5420434;26;20007;-64
2024/04/12 08:20:13;;;;;;;1.15;0.40;;;;;;;13.99;100.00;101485.28;5437336;26;20018;-64
2024/04/12 08:22:43;;;;;;;2.08;1.08;;;;;;;13.98;100.00;101487.25;5422054;26;20019;-63
2024/04/12 08:25:17;;;;;;;1.75;0.63;;;;;;;13.98;100.00;101478.91;5427030;26;20016;-64
2024/04/12 08:27:47;;;;;;;5.53;0.80;;;;;;;13.99;100.00;101486.09;5426677;26;20000;-64
2024/04/12 08:30:19;;;;;;;2.08;0.50;;;;;;;14.01;100.00;101478.22;5439449;26;20057;-64
2024/04/12 08:32:51;;;;;;;1.38;0.52;;;;;;;14.02;100.00;101470.66;5411470;26;20438;-64
2024/04/12 08:35:24;;;;;;;5.53;0.70;;;;;;;14.08;100.00;101460.09;5423276;26;20344;-64
2024/04/12 08:37:52;;;;;;;3.30;0.60;;;;;;;14.13;100.00;101473.78;5407563;26;20004;-63
2024/04/12 08:40:24;;;;;;;4.82;0.63;;;;;;;14.16;100.00;101478.66;5427574;26;20076;-64
2024/04/12 08:43:09;;;;;;;4.57;0.82;;;;;;;14.15;100.00;101477.84;5430714;26;20015;-62
2024/04/12 08:45:44;;;;;;;2.50;0.75;;;;;;;14.15;100.00;101488.16;5394828;26;20682;-63
2024/04/12 08:48:12;;;;;;;3.58;0.60;;;;;;;14.14;100.00;101486.56;5439320;26;19998;-63
2024/04/12 08:50:40;;;;;;;1.15;0.50;;;;;;;14.11;99.89;101482.47;5413096;26;20524;-63
2024/04/12 08:53:15;;;;;;;4.63;0.88;;;;;;;14.12;100.00;101497.22;5430394;26;20018;-63
2024/04/12 08:55:44;;;;;;;4.07;0.70;;;;;;;14.10;99.65;101496.75;5435814;26;20007;-64
2024/04/12 08:58:20;;;;;;;3.15;0.60;;;;;;;14.11;99.66;101499.19;5421533;26;20023;-63
2024/04/12 09:00:53;;;;;;;1.55;0.70;;;;;;;14.13;99.82;101496.06;5422476;26;20054;-63
2024/04/12 09:03:25;;;;;;;2.53;0.88;;;;;;;14.15;99.81;101499.28;5412449;26;20015;-63
2024/04/12 09:05:55;;;;;;;7.45;0.98;;;;;;;14.14;99.14;101486.56;5429184;26;20047;-63
2024/04/12 09:08:28;;;;;;;2.63;0.75;;;;;;;14.13;99.13;101480.16;5427430;26;20009;-63
2024/04/12 09:11:00;;;;;;;5.15;0.75;;;;;;;14.15;99.01;101485.38;5416368;26;20011;-63
2024/04/12 09:13:33;;;;;;;2.35;0.50;;;;;;;14.19;98.86;101489.09;5395356;26;20015;-62
2024/04/12 09:16:06;;;;;;;4.50;0.50;;;;;;;14.20;98.72;101479.56;5410006;26;20020;-61
2024/04/12 09:18:44;;;;;;;4.00;0.70;;;;;;;14.28;98.91;101500.91;5400327;26;20015;-62
2024/04/12 09:21:24;;;;;;;5.53;0.98;;;;;;;14.32;98.32;101504.66;5423783;26;20108;-62
2024/04/12 09:24:09;;;;;;;0.75;0.73;;;;;;;14.32;97.86;101494.28;5407010;26;20019;-63
2024/04/12 09:26:55;;;;;;;3.75;0.85;;;;;;;14.33;98.12;101495.09;5411506;26;20008;-61
2024/04/12 09:29:27;;;;;;;3.25;0.90;;;;;;;14.36;98.04;101502.75;5426216;26;20457;-62
2024/04/12 09:34:55;;;;;;;5.50;1.00;;;;;;;14.31;97.39;101505.75;5397804;26;20000;-61
2024/04/12 09:37:38;;;;;;;5.55;1.80;;;;;;;14.28;97.40;101515.63;5407228;26;20335;-62
2024/04/12 09:45:31;;;;;;;6.00;1.40;;;;;;;14.14;96.87;101531.13;5392380;26;20005;-61
2024/04/12 10:39:30;;;;;;;3.83;0.73;;;;;;;14.69;95.34;101472.72;5391252;26;20027;-61
2024/04/12 10:42:00;;;;;;;1.20;0.70;;;;;;;14.94;95.07;101479.78;5437338;26;20013;-62
2024/04/12 10:44:28;;;;;;;1.70;0.77;;;;;;;15.10;94.95;101485.38;5424874;26;20047;-62
2024/04/12 10:46:55;;;;;;;2.17;0.85;;;;;;;15.27;94.54;101487.00;5411643;26;20003;-62
2024/04/12 10:49:22;;;;;;;1.83;0.70;;;;;;;15.37;94.07;101489.25;5405614;26;20044;-62
2024/04/12 10:51:52;;;;;;;4.53;0.63;;;;;;;15.46;93.80;101481.56;5414051;26;20013;-62
2024/04/12 10:54:23;;;;;;;1.25;0.47;;;;;;;15.55;93.69;101482.19;5430008;26;20040;-62
2024/04/12 10:56:53;;;;;;;1.95;0.77;;;;;;;15.75;93.30;101484.69;5411426;26;20015;-62
2024/04/12 10:59:30;;;;;;;4.63;0.70;;;;;;;15.89;92.85;101484.22;5433257;26;20030;-61
2024/04/12 11:01:59;;;;;;;;;;;;;;;15.95;93.06;101488.34;5435456;26;20018;-62
2024/04/12 11:05:05;;;;;;;3.95;0.85;;;;;;;15.99;93.05;101488.44;5432070;26;19932;-61
2024/04/12 11:07:21;;;;;;;2.97;0.50;;;;;;;16.04;92.96;101474.19;5411866;26;20023;-62
2024/04/12 11:09:58;;;;;;;3.63;1.13;;;;;;;16.00;92.69;101479.69;5428768;26;20366;-62
2024/04/12 11:12:29;;;;;;;1.17;0.57;;;;;;;15.94;92.09;101489.50;5439515;26;20011;-62
2024/04/12 11:31:06;;;;;;;2.15;0.57;;;;;;;15.94;93.06;101489.50;5429843;26;20019;-62
2024/04/12 11:32:05;;;;;;;2.90;0.63;;;;;;;15.94;91.28;101492.31;5421621;26;20019;-61
2024/04/12 11:34:33;;;;;;;1.75;0.70;;;;;;;15.96;90.71;101487.19;5411136;26;20051;-64
2024/04/12 11:37:13;;;;;;;2.08;0.90;;;;;;;15.99;90.44;101477.28;5407264;26;20611;-63
2024/04/12 11:39:45;;;;;;;0.98;0.57;;;;;;;15.96;90.01;101492.78;5413095;26;20035;-62
2024/04/12 11:42:18;;;;;;;2.40;0.50;;;;;;;15.94;89.93;101499.91;5429152;26;20010;-62
2024/04/12 11:44:53;;;;;;;3.42;1.13;;;;;;;15.95;89.58;101495.91;5421892;26;20015;-61
2024/04/12 11:47:23;;;;;;;2.88;0.70;;;;;;;15.96;89.50;101498.38;5417808;26;20003;-62
2024/04/12 11:49:57;;;;;;;2.03;0.70;;;;;;;15.93;88.96;101496.28;5441372;26;20031;-62
2024/04/12 11:52:25;;;;;;;2.58;0.60;;;;;;;15.91;88.75;101504.22;5407547;26;20063;-62
2024/04/12 11:54:55;;;;;;;6.32;0.95;;;;;;;15.88;88.36;101504.94;5402867;26;20008;-62
2024/04/12 11:57:26;;;;;;;1.95;0.50;;;;;;;15.86;88.10;101501.69;5413841;26;20035;-63
2024/04/12 11:59:58;;;;;;;4.35;0.88;;;;;;;15.84;88.03;101515.22;5420728;26;20015;-61
2024/04/12 12:02:31;;;;;;;2.33;0.50;;;;;;;15.80;87.90;101505.94;5425979;26;20021;-62
2024/04/12 12:05:00;;;;;;;7.88;0.90;;;;;;;15.78;87.85;101494.31;5387087;26;20005;-61
2024/04/12 12:07:27;;;;;;;2.65;0.70;;;;;;;15.71;87.22;101486.59;5431478;26;20019;-61
2024/04/12 12:09:55;;;;;;;2.85;0.95;;;;;;;15.73;87.31;101492.63;5395315;26;20012;-62
2024/04/12 12:12:26;;;;;;;3.10;0.80;;;;;;;15.83;87.65;101491.28;5414607;26;20023;-63
2024/04/12 12:14:54;;;;;;;3.45;0.65;;;;;;;15.86;87.35;101495.31;5415691;26;20014;-61
2024/04/12 12:17:22;;;;;;;2.67;0.90;;;;;;;15.81;86.88;101488.00;5408337;26;20018;-61
2024/04/12 12:19:52;;;;;;;3.97;1.10;;;;;;;15.81;86.72;101497.19;5427736;26;20003;-62
2024/04/12 12:22:21;;;;;;;4.45;0.93;;;;;;;15.77;86.41;101487.13;5415752;26;20022;-62
2024/04/12 12:24:49;;;;;;;6.20;2.38;;;;;;;15.72;86.43;101482.63;5421052;26;20049;-61
2024/04/12 12:27:23;;;;;;;4.40;1.15;;;;;;;15.80;86.77;101480.81;5430443;26;20059;-61
2024/04/12 12:29:53;;;;;;;7.03;2.15;;;;;;;15.91;86.79;101479.09;5433283;26;20456;-61
2024/04/12 12:32:26;;;;;;;3.60;1.10;;;;;;;16.00;86.38;101468.50;5445179;26;20075;-62
2024/04/12 12:34:54;;;;;;;4.85;1.17;;;;;;;16.11;86.36;101491.91;5433043;26;20007;-62
2024/04/12 12:37:24;;;;;;;3.22;0.98;;;;;;;16.22;86.28;101480.97;5427746;26;20055;-63
2024/04/12 12:39:52;;;;;;;4.72;0.80;;;;;;;16.34;86.04;101469.66;5437304;26;20449;-61
2024/04/12 12:42:19;;;;;;;5.28;1.10;;;;;;;16.36;85.45;101465.31;5412915;26;20023;-61
2024/04/12 12:44:47;;;;;;;6.40;1.20;;;;;;;16.37;85.42;101461.34;5436261;26;20030;-61
2024/04/12 12:47:20;;;;;;;6.60;1.13;;;;;;;16.40;85.87;101463.44;5429805;26;20015;-61
2024/04/12 12:49:48;;;;;;;6.03;1.00;;;;;;;16.41;85.44;101462.22;5407375;26;20032;-61
2024/04/12 12:52:15;;;;;;;4.78;1.33;;;;;;;16.42;85.60;101454.66;5421477;26;20013;-62
2024/04/12 12:54:43;;;;;;;6.35;1.27;;;;;;;16.42;85.27;101444.28;5430076;26;20464;-61
2024/04/12 12:57:17;;;;;;;5.28;1.15;;;;;;;16.51;85.80;101443.25;5445342;26;19999;-61
2024/04/12 12:59:45;;;;;;;2.10;1.30;;;;;;;16.56;84.65;101437.41;5431782;26;20013;-61
2024/04/12 13:02:16;;;;;;;4.45;1.30;;;;;;;16.66;85.04;101425.63;5430198;26;20072;-61
2024/04/12 13:04:49;;;;;;;2.75;0.85;;;;;;;16.80;84.65;101428.69;5409176;26;20008;-62
2024/04/12 13:07:18;;;;;;;6.80;1.27;;;;;;;16.89;84.31;101427.28;5409141;26;20023;-61